createdAt,value
2023-02-27T00:01:17.245Z,-0.90
2023-02-27T00:04:59.192Z,-1.00
2023-02-27T00:08:41.186Z,-1.00
2023-02-27T00:12:23.188Z,-1.00
2023-02-27T00:16:05.768Z,-1.00
2023-02-27T00:19:47.739Z,-1.00
2023-02-27T00:23:29.706Z,-1.00
2023-02-27T00:27:11.745Z,-1.00
2023-02-27T00:30:53.894Z,-1.00
2023-02-27T00:34:35.951Z,-1.00
2023-02-27T00:38:17.877Z,-1.00
2023-02-27T00:41:59.946Z,-1.00
2023-02-27T00:45:41.978Z,-1.00
2023-02-27T00:49:25.471Z,-1.00
2023-02-27T00:53:07.419Z,-1.00
2023-02-27T00:56:49.442Z,-1.10
2023-02-27T01:00:31.514Z,-1.10
2023-02-27T01:04:13.652Z,-1.10
2023-02-27T01:07:55.602Z,-1.20
2023-02-27T01:11:37.761Z,-1.20
2023-02-27T01:15:20.050Z,-1.20
2023-02-27T01:19:02.117Z,-1.20
2023-02-27T01:22:44.091Z,-1.20
2023-02-27T01:26:26.243Z,-1.30
2023-02-27T01:30:11.399Z,-1.30
2023-02-27T01:33:53.385Z,-1.30
2023-02-27T01:37:35.392Z,-1.40
2023-02-27T01:41:17.573Z,-1.40
2023-02-27T01:45:10.068Z,-1.50
2023-02-27T01:48:59.088Z,-1.50
2023-02-27T01:52:44.021Z,-1.50
2023-02-27T01:56:29.256Z,-1.60
2023-02-27T02:00:12.533Z,-1.60
2023-02-27T02:04:10.247Z,-1.60
2023-02-27T02:07:53.200Z,-1.70
2023-02-27T02:11:35.305Z,-1.70
2023-02-27T02:15:17.547Z,-1.80
2023-02-27T02:19:36.308Z,-1.80
2023-02-27T02:23:33.915Z,-1.80
2023-02-27T02:27:22.552Z,-1.80
2023-02-27T02:31:29.120Z,-1.80
2023-02-27T02:35:23.296Z,-1.80
2023-02-27T02:39:11.201Z,-1.80
2023-02-27T02:42:59.610Z,-1.90
2023-02-27T02:47:06.482Z,-1.90
2023-02-27T02:51:05.780Z,-1.90
2023-02-27T02:54:59.729Z,-1.90
2023-02-27T02:59:08.772Z,-1.90
2023-02-27T03:03:00.588Z,-1.90
2023-02-27T03:06:50.365Z,-1.90
2023-02-27T03:10:36.604Z,-2.00
2023-02-27T03:14:27.043Z,-2.00
2023-02-27T03:18:18.687Z,-2.00
2023-02-27T03:22:15.336Z,-2.10
2023-02-27T03:25:58.513Z,-2.10
2023-02-27T03:29:46.304Z,-2.10
2023-02-27T03:33:49.010Z,-2.10
2023-02-27T03:37:41.478Z,-2.20
2023-02-27T03:41:37.119Z,-2.20
2023-02-27T03:45:19.053Z,-2.20
2023-02-27T03:49:01.079Z,-2.30
2023-02-27T03:52:43.389Z,-2.30
2023-02-27T03:56:51.728Z,-2.40
2023-02-27T04:00:34.861Z,-2.40
2023-02-27T04:04:18.235Z,-2.40
2023-02-27T04:08:26.971Z,-2.40
2023-02-27T04:12:44.318Z,-2.40
2023-02-27T04:16:37.553Z,-2.50
2023-02-27T04:20:28.529Z,-2.50
2023-02-27T04:24:32.436Z,-2.50
2023-02-27T04:28:25.194Z,-2.50
2023-02-27T04:32:20.157Z,-2.50
2023-02-27T04:36:18.674Z,-2.60
2023-02-27T04:40:05.624Z,-2.60
2023-02-27T04:43:49.796Z,-2.60
2023-02-27T04:47:38.744Z,-2.60
2023-02-27T04:51:26.473Z,-2.60
2023-02-27T04:55:13.534Z,-2.60
2023-02-27T04:58:59.802Z,-2.70
2023-02-27T05:02:47.293Z,-2.60
2023-02-27T05:06:34.833Z,-2.60
2023-02-27T05:10:29.081Z,-2.70
2023-02-27T05:14:19.923Z,-2.60
2023-02-27T05:18:10.857Z,-2.60
2023-02-27T05:22:14.654Z,-2.60
2023-02-27T05:26:04.472Z,-2.50
2023-02-27T05:29:56.226Z,-2.50
2023-02-27T05:34:04.456Z,-2.50
2023-02-27T05:38:18.180Z,-2.50
2023-02-27T05:42:14.089Z,-2.50
2023-02-27T05:46:04.554Z,-2.60
2023-02-27T05:50:11.675Z,-2.60
2023-02-27T05:53:59.615Z,-2.60
2023-02-27T05:57:59.593Z,-2.70
2023-02-27T06:01:41.603Z,-2.70
2023-02-27T06:05:25.681Z,-2.70
2023-02-27T06:09:08.373Z,-2.70
2023-02-27T06:12:50.445Z,-2.70
2023-02-27T06:16:32.460Z,-2.60
2023-02-27T06:20:14.469Z,-2.50
2023-02-27T06:23:56.475Z,-2.40
2023-02-27T06:27:38.463Z,-2.30
2023-02-27T06:31:20.541Z,-2.10
2023-02-27T06:35:02.651Z,-2.00
2023-02-27T06:38:44.664Z,-1.90
2023-02-27T06:42:27.092Z,-1.70
2023-02-27T06:46:09.139Z,-1.60
2023-02-27T06:49:51.147Z,-1.40
2023-02-27T06:53:33.645Z,-1.30
2023-02-27T06:57:15.750Z,-1.20
2023-02-27T07:01:00.392Z,-1.10
2023-02-27T07:04:42.576Z,-0.90
2023-02-27T07:08:24.799Z,-0.80
2023-02-27T07:12:08.079Z,-0.70
2023-02-27T07:15:51.165Z,-0.60
2023-02-27T07:19:35.932Z,-0.50
2023-02-27T07:23:18.760Z,-0.40
2023-02-27T07:27:00.983Z,-0.20
2023-02-27T07:30:42.956Z,-0.20
2023-02-27T07:34:24.904Z,-0.20
2023-02-27T07:38:06.921Z,-0.20
2023-02-27T07:41:48.888Z,-0.10
2023-02-27T07:45:30.930Z,-0.10
2023-02-27T07:49:13.305Z,0.10
2023-02-27T07:52:55.291Z,0.30
2023-02-27T07:56:37.322Z,0.40
2023-02-27T08:00:19.720Z,0.60
2023-02-27T08:04:01.777Z,0.70
2023-02-27T08:07:43.908Z,0.90
2023-02-27T08:11:26.241Z,1.00
2023-02-27T08:15:09.104Z,1.20
2023-02-27T08:18:51.094Z,1.30
2023-02-27T08:22:33.095Z,1.50
2023-02-27T08:26:15.468Z,1.70
2023-02-27T08:29:57.413Z,1.80
2023-02-27T08:33:40.203Z,2.00
2023-02-27T08:37:22.190Z,2.10
2023-02-27T08:41:04.749Z,2.30
2023-02-27T08:44:46.992Z,2.50
2023-02-27T08:48:29.106Z,2.60
2023-02-27T08:52:11.181Z,2.70
2023-02-27T08:55:53.540Z,2.90
2023-02-27T08:59:35.528Z,2.90
2023-02-27T09:03:17.551Z,3.10
2023-02-27T09:06:59.618Z,3.30
2023-02-27T09:10:41.958Z,3.50
2023-02-27T09:14:24.412Z,3.70
2023-02-27T09:18:07.132Z,3.80
2023-02-27T09:21:49.142Z,4.00
2023-02-27T09:25:31.502Z,4.20
2023-02-27T09:29:13.563Z,4.30
2023-02-27T09:32:55.586Z,4.40
2023-02-27T09:36:37.576Z,4.50
2023-02-27T09:40:31.940Z,4.70
2023-02-27T09:44:33.467Z,4.80
2023-02-27T09:48:30.602Z,5.00
2023-02-27T09:52:14.730Z,5.20
2023-02-27T09:56:05.493Z,5.20
2023-02-27T10:00:10.921Z,5.20
2023-02-27T10:04:36.279Z,5.30
2023-02-27T10:08:33.919Z,5.50
2023-02-27T10:12:37.249Z,5.70
2023-02-27T10:16:22.006Z,5.80
2023-02-27T10:20:10.791Z,5.90
2023-02-27T10:24:27.722Z,5.90
2023-02-27T10:28:14.468Z,5.90
2023-02-27T10:32:04.933Z,6.00
2023-02-27T10:35:47.037Z,6.20
2023-02-27T10:39:30.651Z,6.50
2023-02-27T10:43:19.314Z,6.60
2023-02-27T10:47:01.472Z,6.80
2023-02-27T10:50:45.773Z,7.00
2023-02-27T10:54:27.761Z,7.00
2023-02-27T10:58:19.715Z,7.10
2023-02-27T11:02:06.263Z,7.40
2023-02-27T11:06:01.829Z,8.10
2023-02-27T11:09:43.925Z,8.50
2023-02-27T11:13:31.439Z,8.50
2023-02-27T11:17:41.859Z,8.50
2023-02-27T11:21:30.129Z,8.70
2023-02-27T11:25:25.652Z,9.20
2023-02-27T11:29:12.984Z,10.00
2023-02-27T11:33:01.550Z,10.20
2023-02-27T11:36:46.935Z,10.20
2023-02-27T11:40:48.189Z,10.90
2023-02-27T11:44:38.860Z,12.00
2023-02-27T11:48:37.785Z,12.70
2023-02-27T11:52:38.273Z,13.50
2023-02-27T11:56:44.918Z,14.00
2023-02-27T12:01:15.360Z,15.00
2023-02-27T12:05:22.623Z,15.90
2023-02-27T12:09:18.808Z,15.40
2023-02-27T12:13:06.240Z,14.20
2023-02-27T12:16:56.991Z,13.00
2023-02-27T12:20:50.718Z,12.10
2023-02-27T12:24:41.327Z,12.00
2023-02-27T12:28:30.601Z,11.80
2023-02-27T12:32:23.378Z,11.40
2023-02-27T12:36:09.889Z,11.20
2023-02-27T12:39:55.065Z,11.30
2023-02-27T12:43:56.621Z,11.30
2023-02-27T12:47:41.714Z,11.10
2023-02-27T12:51:44.284Z,10.80
2023-02-27T12:55:37.963Z,10.50
2023-02-27T12:59:36.551Z,10.30
2023-02-27T13:03:30.348Z,10.30
2023-02-27T13:07:35.967Z,10.30
2023-02-27T13:11:51.849Z,10.20
2023-02-27T13:16:00.705Z,10.10
2023-02-27T13:19:53.202Z,10.80
2023-02-27T13:23:43.490Z,11.00
2023-02-27T13:27:36.041Z,11.00
2023-02-27T13:31:48.110Z,10.80
2023-02-27T13:35:39.313Z,10.40
2023-02-27T13:39:44.103Z,10.20
2023-02-27T13:43:51.488Z,10.00
2023-02-27T13:47:37.984Z,9.90
2023-02-27T13:51:35.328Z,9.80
2023-02-27T13:55:43.491Z,9.90
2023-02-27T13:59:25.421Z,9.90
2023-02-27T14:03:25.855Z,9.90
2023-02-27T14:07:14.150Z,9.80
2023-02-27T14:11:13.655Z,9.80
2023-02-27T14:14:56.447Z,9.80
2023-02-27T14:18:55.025Z,9.90
2023-02-27T14:22:39.762Z,9.90
2023-02-27T14:26:22.832Z,10.00
2023-02-27T14:30:10.125Z,10.00
2023-02-27T14:33:55.924Z,10.10
2023-02-27T14:37:38.678Z,10.20
2023-02-27T14:41:29.704Z,10.30
2023-02-27T14:45:20.743Z,10.20
2023-02-27T14:49:26.364Z,10.10
2023-02-27T14:53:22.979Z,10.10
2023-02-27T14:57:06.713Z,10.50
2023-02-27T15:00:58.856Z,10.50
2023-02-27T15:04:41.113Z,10.30
2023-02-27T15:08:28.185Z,10.00
2023-02-27T15:12:17.962Z,9.80
2023-02-27T15:16:31.942Z,9.70
2023-02-27T15:20:25.703Z,9.70
2023-02-27T15:24:21.132Z,9.80
2023-02-27T15:28:22.824Z,9.80
2023-02-27T15:32:06.596Z,9.70
2023-02-27T15:35:48.686Z,9.70
2023-02-27T15:39:33.904Z,9.70
2023-02-27T15:43:16.030Z,9.70
2023-02-27T15:46:58.800Z,9.70
2023-02-27T15:50:47.939Z,9.60
2023-02-27T15:54:34.377Z,9.50
2023-02-27T15:58:26.596Z,9.40
2023-02-27T16:02:46.130Z,9.30
2023-02-27T16:06:30.672Z,9.20
2023-02-27T16:10:22.570Z,9.20
2023-02-27T16:14:06.173Z,9.10
2023-02-27T16:18:07.945Z,9.10
2023-02-27T16:22:13.739Z,9.10
2023-02-27T16:26:07.051Z,9.00
2023-02-27T16:29:49.321Z,8.90
2023-02-27T16:33:36.721Z,8.90
2023-02-27T16:37:34.993Z,8.80
2023-02-27T16:41:19.424Z,8.70
2023-02-27T16:45:01.454Z,8.60
2023-02-27T16:48:43.419Z,8.50
2023-02-27T16:52:25.483Z,8.40
2023-02-27T16:56:10.904Z,8.40
2023-02-27T16:59:52.844Z,8.20
2023-02-27T17:03:35.309Z,8.10
2023-02-27T17:07:18.279Z,8.10
2023-02-27T17:11:00.294Z,8.00
2023-02-27T17:14:42.308Z,7.90
2023-02-27T17:18:24.386Z,8.00
2023-02-27T17:22:06.700Z,7.90
2023-02-27T17:25:48.750Z,7.90
2023-02-27T17:29:30.867Z,7.90
2023-02-27T17:33:12.892Z,7.80
2023-02-27T17:36:54.854Z,7.80
2023-02-27T17:40:39.413Z,7.80
2023-02-27T17:44:21.622Z,7.70
2023-02-27T17:48:03.660Z,7.70
2023-02-27T17:51:45.770Z,7.70
2023-02-27T17:55:27.775Z,7.70
2023-02-27T17:59:09.799Z,7.60
2023-02-27T18:02:51.858Z,7.50
2023-02-27T18:06:33.940Z,7.30
2023-02-27T18:10:15.988Z,7.10
2023-02-27T18:13:58.392Z,6.90
2023-02-27T18:17:40.407Z,6.80
2023-02-27T18:21:24.413Z,6.80
2023-02-27T18:25:07.280Z,6.70
2023-02-27T18:28:52.977Z,6.60
2023-02-27T18:32:35.051Z,6.50
2023-02-27T18:36:17.304Z,6.50
2023-02-27T18:39:59.240Z,6.40
2023-02-27T18:43:43.439Z,6.40
2023-02-27T18:47:25.615Z,6.40
2023-02-27T18:51:12.474Z,6.40
2023-02-27T18:54:54.587Z,6.40
2023-02-27T18:58:37.178Z,6.50
2023-02-27T19:02:22.304Z,6.50
2023-02-27T19:06:04.375Z,6.50
2023-02-27T19:09:46.630Z,6.50
2023-02-27T19:13:28.634Z,6.50
2023-02-27T19:17:10.654Z,6.50
2023-02-27T19:20:52.644Z,6.40
2023-02-27T19:24:34.600Z,6.20
2023-02-27T19:28:16.665Z,6.10
2023-02-27T19:31:58.714Z,6.00
2023-02-27T19:35:43.428Z,5.90
2023-02-27T19:39:25.609Z,5.80
2023-02-27T19:43:07.716Z,5.70
2023-02-27T19:46:52.164Z,5.60
2023-02-27T19:50:34.673Z,5.50
2023-02-27T19:54:17.527Z,5.40
2023-02-27T19:57:59.569Z,5.30
2023-02-27T20:01:41.763Z,5.20
2023-02-27T20:05:24.882Z,5.10
2023-02-27T20:09:07.282Z,5.00
2023-02-27T20:12:49.229Z,4.90
2023-02-27T20:16:35.649Z,4.80
2023-02-27T20:20:17.856Z,4.80
2023-02-27T20:24:01.078Z,4.70
2023-02-27T20:27:43.145Z,4.60
2023-02-27T20:31:30.348Z,4.50
2023-02-27T20:35:12.706Z,4.40
2023-02-27T20:38:54.754Z,4.30
2023-02-27T20:42:36.746Z,4.30
2023-02-27T20:46:21.408Z,4.10
2023-02-27T20:50:03.390Z,4.10
2023-02-27T20:53:47.606Z,4.00
2023-02-27T20:57:29.611Z,3.90
2023-02-27T21:01:13.797Z,3.80
2023-02-27T21:04:57.616Z,3.80
2023-02-27T21:08:42.182Z,3.60
2023-02-27T21:12:24.228Z,3.50
2023-02-27T21:16:08.108Z,3.40
2023-02-27T21:19:50.209Z,3.40
2023-02-27T21:23:32.676Z,3.30
2023-02-27T21:27:16.561Z,3.20
2023-02-27T21:30:58.565Z,3.10
2023-02-27T21:34:40.590Z,3.00
2023-02-27T21:38:22.539Z,2.90
2023-02-27T21:42:05.145Z,2.80
2023-02-27T21:45:51.735Z,2.70
2023-02-27T21:49:33.816Z,2.70
2023-02-27T21:53:16.134Z,2.60
2023-02-27T21:57:01.890Z,2.50
2023-02-27T22:00:43.889Z,2.40
2023-02-27T22:04:25.957Z,2.40
2023-02-27T22:08:08.123Z,2.30
2023-02-27T22:11:50.188Z,2.30
2023-02-27T22:15:32.215Z,2.20
2023-02-27T22:19:20.035Z,2.20
2023-02-27T22:23:04.818Z,2.10
2023-02-27T22:26:49.727Z,2.00
2023-02-27T22:30:31.770Z,1.90
2023-02-27T22:34:19.479Z,1.90
2023-02-27T22:38:01.520Z,1.90
2023-02-27T22:41:43.756Z,1.90
2023-02-27T22:45:25.767Z,1.90
2023-02-27T22:49:12.728Z,1.90
2023-02-27T22:52:54.741Z,1.90
2023-02-27T22:56:37.444Z,1.90
2023-02-27T23:00:19.719Z,1.80
2023-02-27T23:04:05.077Z,1.80
2023-02-27T23:07:47.344Z,1.80
2023-02-27T23:11:29.763Z,1.70
2023-02-27T23:15:12.158Z,1.70
2023-02-27T23:18:56.918Z,1.60
2023-02-27T23:22:38.869Z,1.60
2023-02-27T23:26:20.861Z,1.60
2023-02-27T23:30:03.058Z,1.60
2023-02-27T23:33:45.767Z,1.60
2023-02-27T23:37:27.762Z,1.60
2023-02-27T23:41:10.339Z,1.60
2023-02-27T23:45:10.642Z,1.60
2023-02-27T23:48:52.651Z,1.60
2023-02-27T23:52:34.630Z,1.50
2023-02-27T23:56:16.866Z,1.50
2023-02-27T23:59:58.881Z,1.40
